Time;durP1;ratioP1;P1;durP2;ratioP2;P2;SDS_P1;SDS_P2;PMS_P1;PMS_P2;Temp;Humidity;BMP_temperature;BMP_pressure;BME280_temperature;BME280_humidity;BME280_pressure;Samples;Min_cycle;Max_cycle;Signal;HPM_P1;HPM_P2
2023/07/11 00:00:25;;;;;;;4.70;1.30;;;19.10;99.90;;;;;;4214294;28;20393;-86
2023/07/11 00:02:26;;;;;;;4.20;1.45;;;19.10;99.90;;;;;;4214268;28;20040;-86
2023/07/11 00:04:26;;;;;;;3.22;1.40;;;19.10;99.90;;;;;;4212544;28;20032;-86
2023/07/11 00:06:28;;;;;;;8.60;1.73;;;19.10;99.90;;;;;;4212139;28;20524;-86
2023/07/11 00:08:29;;;;;;;4.85;1.60;;;19.10;99.90;;;;;;4225171;28;20507;-86
2023/07/11 00:10:30;;;;;;;4.95;1.25;;;19.10;99.90;;;;;;4212705;28;20040;-86
2023/07/11 00:12:31;;;;;;;2.60;1.17;;;19.10;99.90;;;;;;4212766;28;20044;-86
2023/07/11 00:14:32;;;;;;;3.67;1.30;;;19.00;99.90;;;;;;4212640;28;20507;-86
2023/07/11 00:16:34;;;;;;;6.28;1.73;;;18.80;99.90;;;;;;4214142;28;20054;-86
2023/07/11 00:18:35;;;;;;;2.72;1.38;;;19.00;99.90;;;;;;4213278;28;20051;-86
2023/07/11 00:20:35;;;;;;;5.20;1.40;;;19.10;99.90;;;;;;4230582;28;20052;-87
2023/07/11 00:22:36;;;;;;;5.15;1.73;;;19.00;99.90;;;;;;4213826;28;20052;-86
2023/07/11 00:24:37;;;;;;;3.45;1.50;;;19.00;99.90;;;;;;4226488;28;20507;-85
2023/07/11 00:26:37;;;;;;;4.03;1.30;;;19.00;99.90;;;;;;4200766;28;20083;-86
2023/07/11 00:28:38;;;;;;;3.28;1.20;;;19.00;99.90;;;;;;4199677;28;20044;-86
2023/07/11 00:30:41;;;;;;;4.60;1.38;;;19.00;99.90;;;;;;4200530;28;20406;-86
2023/07/11 00:32:42;;;;;;;3.78;1.20;;;18.90;99.90;;;;;;4199299;28;20044;-86
2023/07/11 00:34:43;;;;;;;4.32;1.52;;;18.90;99.90;;;;;;4200717;28;20126;-87
2023/07/11 00:36:44;;;;;;;4.32;1.15;;;18.90;99.90;;;;;;4200823;28;20049;-86
2023/07/11 00:38:44;;;;;;;3.08;0.80;;;18.80;99.90;;;;;;4200826;28;20115;-86
2023/07/11 00:40:47;;;;;;;4.45;1.65;;;18.80;99.90;;;;;;4200779;28;20036;-86
2023/07/11 00:42:53;;;;;;;3.20;1.20;;;18.80;99.90;;;;;;4202687;28;20040;-86
2023/07/11 00:44:58;;;;;;;3.72;1.27;;;18.90;99.90;;;;;;4216893;28;20040;-86
2023/07/11 00:46:58;;;;;;;3.67;1.20;;;18.90;99.90;;;;;;4217092;28;20050;-86
2023/07/11 00:49:02;;;;;;;6.43;1.30;;;18.90;99.90;;;;;;4218610;28;20471;-86
2023/07/11 00:51:10;;;;;;;5.40;1.08;;;18.90;99.90;;;;;;4218445;28;20055;-85
2023/07/11 00:53:11;;;;;;;5.05;1.40;;;18.80;99.90;;;;;;4219186;28;20052;-86
2023/07/11 00:55:14;;;;;;;4.60;1.02;;;18.80;99.90;;;;;;4218277;28;20044;-86
2023/07/11 00:57:16;;;;;;;4.97;1.10;;;18.80;99.90;;;;;;4218477;28;20047;-86
2023/07/11 00:59:19;;;;;;;5.28;1.10;;;18.80;99.90;;;;;;4217083;28;20044;-87
2023/07/11 01:01:20;;;;;;;5.85;1.35;;;18.80;99.90;;;;;;4203616;28;20127;-86
2023/07/11 01:03:23;;;;;;;9.35;1.50;;;18.80;99.90;;;;;;4201499;28;20044;-86
2023/07/11 01:05:25;;;;;;;4.22;1.27;;;18.80;99.90;;;;;;4200473;28;20055;-85
2023/07/11 01:07:30;;;;;;;4.00;1.17;;;18.70;99.90;;;;;;4203785;28;20507;-86
2023/07/11 01:09:31;;;;;;;5.20;1.20;;;18.70;99.90;;;;;;4202426;28;20101;-85
2023/07/11 01:12:07;;;;;;;2.72;1.20;;;18.60;99.90;;;;;;4199849;28;20142;-86
2023/07/11 01:14:08;;;;;;;10.30;2.22;;;18.70;99.90;;;;;;4200784;28;20412;-86
2023/07/11 01:16:09;;;;;;;3.72;1.10;;;18.60;99.90;;;;;;4216919;28;20056;-86
2023/07/11 01:18:11;;;;;;;3.70;1.10;;;18.60;99.90;;;;;;4210778;28;20063;-86
2023/07/11 01:20:12;;;;;;;5.82;1.35;;;18.40;99.90;;;;;;4217592;28;20062;-86
2023/07/11 01:22:13;;;;;;;2.58;1.08;;;18.50;99.90;;;;;;4216051;28;20036;-86
2023/07/11 01:24:14;;;;;;;4.53;1.42;;;18.50;99.90;;;;;;4218334;28;20043;-86
2023/07/11 01:26:15;;;;;;;5.70;1.08;;;18.50;99.90;;;;;;4217404;28;20090;-85
2023/07/11 01:28:16;;;;;;;3.58;1.20;;;18.40;99.90;;;;;;4200721;28;20055;-86
2023/07/11 01:30:20;;;;;;;3.38;1.42;;;18.40;99.90;;;;;;4218590;28;20071;-85
2023/07/11 01:32:21;;;;;;;4.82;1.20;;;18.40;99.90;;;;;;4217174;28;20051;-86
2023/07/11 01:34:21;;;;;;;3.22;1.30;;;18.50;99.90;;;;;;4215334;28;20055;-85
2023/07/11 01:36:22;;;;;;;6.50;1.30;;;18.50;99.90;;;;;;4193093;28;20128;-86
2023/07/11 01:38:24;;;;;;;2.78;1.15;;;18.50;99.90;;;;;;4198686;28;20531;-87
2023/07/11 01:40:25;;;;;;;3.28;1.60;;;18.50;99.90;;;;;;4198736;28;20041;-86
2023/07/11 01:42:26;;;;;;;3.10;1.05;;;18.50;99.90;;;;;;4199205;28;20055;-87
2023/07/11 01:44:28;;;;;;;4.18;1.17;;;18.60;99.90;;;;;;4198842;28;20044;-87
2023/07/11 01:46:29;;;;;;;4.45;1.30;;;18.60;99.90;;;;;;4214895;28;20040;-86
2023/07/11 01:48:30;;;;;;;3.42;1.20;;;18.60;99.90;;;;;;4182227;28;20528;-86
2023/07/11 01:50:30;;;;;;;4.65;1.17;;;18.60;99.90;;;;;;4215708;28;20047;-87
2023/07/11 01:52:32;;;;;;;3.78;0.95;;;18.60;99.90;;;;;;4200424;28;20056;-87
2023/07/11 01:54:33;;;;;;;5.75;0.95;;;18.60;99.90;;;;;;4199193;28;20438;-87
2023/07/11 01:56:34;;;;;;;5.80;1.30;;;18.60;99.90;;;;;;4216835;28;20056;-87
2023/07/11 01:58:35;;;;;;;6.10;1.00;;;18.60;99.90;;;;;;4201733;28;20072;-87
2023/07/11 02:00:36;;;;;;;4.22;1.55;;;18.60;99.90;;;;;;4217040;28;20126;-86
2023/07/11 02:02:39;;;;;;;4.78;1.50;;;18.60;99.90;;;;;;4215873;28;20044;-87
2023/07/11 02:04:40;;;;;;;4.55;1.52;;;18.60;99.90;;;;;;4200000;28;20043;-87
2023/07/11 02:06:41;;;;;;;8.27;1.48;;;18.60;99.90;;;;;;4215985;28;20079;-87
2023/07/11 02:08:41;;;;;;;6.00;1.40;;;18.60;99.90;;;;;;4200269;28;20063;-87
2023/07/11 02:10:42;;;;;;;6.57;1.60;;;18.60;99.90;;;;;;4198786;28;20048;-87
2023/07/11 02:12:44;;;;;;;8.27;2.20;;;18.50;99.90;;;;;;4209938;28;20037;-86
2023/07/11 02:14:46;;;;;;;7.18;1.35;;;18.50;99.90;;;;;;4200280;28;20036;-86
2023/07/11 02:16:49;;;;;;;2.35;1.15;;;18.50;99.90;;;;;;4199730;28;20054;-86
2023/07/11 02:18:50;;;;;;;4.60;1.85;;;18.40;99.90;;;;;;4200560;28;20120;-86
2023/07/11 02:20:55;;;;;;;5.53;1.52;;;18.40;99.90;;;;;;4197764;28;20471;-86
2023/07/11 02:22:59;;;;;;;2.67;1.55;;;18.40;99.90;;;;;;4198655;28;20120;-86
2023/07/11 02:25:00;;;;;;;4.07;1.50;;;18.30;99.90;;;;;;4198638;28;20084;-86
2023/07/11 02:27:01;;;;;;;7.97;1.30;;;18.30;99.90;;;;;;4197606;28;20055;-86
2023/07/11 02:29:02;;;;;;;6.15;1.20;;;18.30;99.90;;;;;;4198406;28;20040;-86
2023/07/11 02:31:04;;;;;;;8.73;1.75;;;18.20;99.90;;;;;;4197931;28;20491;-86
2023/07/11 02:33:05;;;;;;;4.60;2.17;;;18.20;99.90;;;;;;4214196;28;20044;-86
2023/07/11 02:35:06;;;;;;;3.97;1.20;;;18.20;99.90;;;;;;4213808;28;20504;-87
2023/07/11 02:37:07;;;;;;;3.75;1.40;;;18.10;99.90;;;;;;4230490;28;20083;-87
2023/07/11 02:39:08;;;;;;;8.90;1.40;;;18.10;99.90;;;;;;4197386;28;20055;-86
2023/07/11 02:41:08;;;;;;;6.13;1.70;;;18.10;99.90;;;;;;4214147;28;20051;-86
2023/07/11 02:43:09;;;;;;;7.13;2.00;;;18.10;99.90;;;;;;4215412;28;20499;-83
2023/07/11 02:45:11;;;;;;;6.38;1.90;;;18.10;99.90;;;;;;4211195;28;20157;-82
2023/07/11 02:47:12;;;;;;;8.07;2.50;;;18.00;99.90;;;;;;4212264;28;20051;-83
2023/07/11 02:49:14;;;;;;;5.25;2.00;;;18.00;99.90;;;;;;4215031;28;20036;-83
2023/07/11 02:51:15;;;;;;;3.60;1.42;;;18.00;99.90;;;;;;4214692;28;20085;-82
2023/07/11 02:53:16;;;;;;;3.65;2.00;;;18.00;99.90;;;;;;4215017;28;20043;-83
2023/07/11 02:55:16;;;;;;;6.45;2.22;;;18.00;99.90;;;;;;4213777;28;20039;-82
2023/07/11 02:57:17;;;;;;;7.75;2.63;;;18.00;99.90;;;;;;4213910;28;20056;-83
2023/07/11 02:59:22;;;;;;;5.70;2.63;;;17.90;99.90;;;;;;4215719;28;20091;-82
2023/07/11 03:01:24;;;;;;;5.20;1.50;;;17.90;99.90;;;;;;4215047;28;20089;-82
2023/07/11 03:03:26;;;;;;;8.45;1.73;;;17.90;99.90;;;;;;4215022;28;20048;-89
2023/07/11 03:05:28;;;;;;;4.88;1.65;;;17.90;99.90;;;;;;4216175;28;20040;-89
2023/07/11 03:07:28;;;;;;;4.00;1.58;;;17.90;99.90;;;;;;4216738;28;20082;-89
2023/07/11 03:09:32;;;;;;;5.53;1.55;;;17.90;99.90;;;;;;4205403;28;20492;-89
2023/07/11 03:11:33;;;;;;;7.65;1.90;;;17.80;99.90;;;;;;4232481;28;20100;-89
2023/07/11 03:13:34;;;;;;;6.18;1.80;;;17.80;99.90;;;;;;4217323;28;20515;-89
2023/07/11 03:15:38;;;;;;;5.35;1.30;;;17.80;99.90;;;;;;4216786;28;20119;-89
2023/07/11 03:17:40;;;;;;;4.35;1.88;;;17.80;99.90;;;;;;4198570;28;20048;-87
2023/07/11 03:19:41;;;;;;;9.00;1.92;;;17.80;99.90;;;;;;4217461;28;20101;-87
2023/07/11 03:21:43;;;;;;;5.53;1.40;;;17.80;99.90;;;;;;4223610;28;20052;-87
2023/07/11 03:23:44;;;;;;;10.32;2.17;;;17.80;99.90;;;;;;4199915;28;20527;-88
2023/07/11 03:25:45;;;;;;;9.55;1.67;;;17.80;99.90;;;;;;4200329;28;20040;-89
2023/07/11 03:27:46;;;;;;;4.88;2.00;;;17.70;99.90;;;;;;4199050;28;20064;-89
2023/07/11 03:29:46;;;;;;;5.75;2.28;;;17.70;99.90;;;;;;4199499;28;20059;-89
2023/07/11 03:31:47;;;;;;;6.25;1.85;;;17.70;99.90;;;;;;4215561;28;20044;-89
2023/07/11 03:33:48;;;;;;;6.07;2.47;;;17.70;99.90;;;;;;4198894;28;20048;-89
2023/07/11 03:35:50;;;;;;;3.42;1.42;;;17.70;99.90;;;;;;4198905;28;20128;-89
2023/07/11 03:37:51;;;;;;;4.30;1.73;;;17.70;99.90;;;;;;4202253;28;20044;-89
2023/07/11 03:39:52;;;;;;;4.50;1.50;;;17.70;99.90;;;;;;4202197;28;20082;-89
2023/07/11 03:41:53;;;;;;;3.55;1.40;;;17.30;99.90;;;;;;4216446;28;20052;-89
2023/07/11 03:43:55;;;;;;;6.22;1.70;;;17.70;99.90;;;;;;4215326;28;20505;-89
2023/07/11 03:45:56;;;;;;;2.95;1.63;;;17.60;99.90;;;;;;4199905;28;20045;-89
2023/07/11 03:47:58;;;;;;;9.68;1.40;;;17.70;99.90;;;;;;4200013;28;20116;-89
2023/07/11 03:49:59;;;;;;;3.50;1.70;;;17.70;99.90;;;;;;4216336;28;20050;-89
2023/07/11 03:52:00;;;;;;;6.20;1.50;;;17.70;99.90;;;;;;4218701;28;20078;-89
2023/07/11 03:54:04;;;;;;;7.85;1.70;;;17.70;99.90;;;;;;4216815;28;20040;-89
2023/07/11 03:56:07;;;;;;;6.80;1.70;;;17.70;99.90;;;;;;4213802;28;20055;-90
2023/07/11 03:58:07;;;;;;;4.85;1.80;;;17.70;99.90;;;;;;4218358;28;20048;-89
2023/07/11 04:00:14;;;;;;;6.47;1.42;;;17.70;99.90;;;;;;4219328;28;20119;-89
2023/07/11 04:02:16;;;;;;;3.47;1.40;;;17.80;99.90;;;;;;4217662;28;20464;-90
2023/07/11 04:04:17;;;;;;;6.68;2.75;;;17.80;99.90;;;;;;4233117;28;20048;-90
2023/07/11 04:06:20;;;;;;;5.43;1.67;;;17.80;99.90;;;;;;4217588;28;20048;-89
2023/07/11 04:08:21;;;;;;;8.68;1.90;;;17.80;99.90;;;;;;4200674;28;20049;-90
2023/07/11 04:10:22;;;;;;;5.80;1.85;;;17.80;99.90;;;;;;4216904;28;20082;-89
2023/07/11 04:12:22;;;;;;;5.25;1.58;;;17.80;99.90;;;;;;4213191;28;20041;-89
2023/07/11 04:14:27;;;;;;;4.40;1.65;;;17.80;99.90;;;;;;4198504;28;20105;-90
2023/07/11 04:16:27;;;;;;;4.13;1.80;;;17.80;99.90;;;;;;4199812;28;20056;-89
2023/07/11 04:18:28;;;;;;;8.98;1.83;;;17.80;99.90;;;;;;4198604;28;20508;-89
2023/07/11 04:20:29;;;;;;;4.97;1.83;;;17.80;99.90;;;;;;4199612;28;20088;-89
2023/07/11 04:22:31;;;;;;;7.40;1.85;;;17.80;99.90;;;;;;4200190;28;20045;-88
2023/07/11 04:24:33;;;;;;;4.82;2.28;;;17.80;99.90;;;;;;4201527;28;20063;-90
2023/07/11 04:26:37;;;;;;;7.43;1.83;;;17.70;99.90;;;;;;4200801;28;20036;-89
2023/07/11 04:28:37;;;;;;;6.88;2.38;;;17.80;99.90;;;;;;4200331;28;20106;-88
2023/07/11 04:30:38;;;;;;;3.65;1.73;;;17.80;99.90;;;;;;4183738;28;20029;-88
2023/07/11 04:32:39;;;;;;;5.88;2.08;;;17.80;99.90;;;;;;4199479;28;20047;-89
2023/07/11 04:34:40;;;;;;;4.18;1.88;;;17.80;99.90;;;;;;4199485;28;20052;-88
2023/07/11 04:36:41;;;;;;;9.15;2.40;;;17.80;99.90;;;;;;4199370;28;20164;-89
2023/07/11 04:38:44;;;;;;;8.93;2.35;;;17.80;99.90;;;;;;4200767;28;20037;-90
2023/07/11 04:40:46;;;;;;;10.32;3.03;;;17.80;99.90;;;;;;4199451;28;20041;-87
2023/07/11 04:42:48;;;;;;;6.55;1.85;;;17.80;99.90;;;;;;4199618;28;20045;-89
2023/07/11 04:44:48;;;;;;;6.00;2.30;;;17.80;99.90;;;;;;4199819;28;20078;-88
2023/07/11 04:46:49;;;;;;;10.85;2.85;;;17.50;99.90;;;;;;4202581;28;20385;-89
2023/07/11 04:48:51;;;;;;;6.65;2.15;;;17.80;99.90;;;;;;4192842;28;20068;-88
2023/07/11 04:51:05;;;;;;;7.38;2.30;;;17.80;99.90;;;;;;4197885;28;20595;-88
2023/07/11 04:53:06;;;;;;;9.40;2.70;;;17.80;99.90;;;;;;4198267;28;20060;-88
2023/07/11 04:55:07;;;;;;;4.68;2.38;;;17.80;99.90;;;;;;4198893;28;20063;-89
2023/07/11 04:57:08;;;;;;;8.32;2.30;;;17.80;99.90;;;;;;4201715;28;20568;-89
2023/07/11 04:59:09;;;;;;;3.70;2.10;;;17.80;99.90;;;;;;4225502;28;20051;-88
2023/07/11 05:01:26;;;;;;;4.75;2.22;;;17.80;99.90;;;;;;4201687;28;20123;-89
2023/07/11 05:03:28;;;;;;;5.05;2.10;;;17.80;99.90;;;;;;4197410;28;20843;-88
2023/07/11 05:05:33;;;;;;;7.53;2.65;;;17.80;99.90;;;;;;4200068;28;20068;-89
2023/07/11 05:07:33;;;;;;;14.00;3.97;;;17.70;99.90;;;;;;4215287;28;20036;-88
2023/07/11 05:09:38;;;;;;;4.93;2.40;;;17.70;99.90;;;;;;4199325;28;20520;-88
2023/07/11 05:11:45;;;;;;;6.88;2.40;;;17.80;99.90;;;;;;4234238;28;20051;-92
2023/07/11 05:13:49;;;;;;;7.00;2.42;;;17.70;99.90;;;;;;4217840;28;20047;-90
2023/07/11 05:15:51;;;;;;;5.07;2.53;;;17.80;99.90;;;;;;4202392;28;20098;-90
2023/07/11 05:17:53;;;;;;;6.78;2.10;;;17.80;99.90;;;;;;4217723;28;20040;-91
2023/07/11 05:19:54;;;;;;;5.10;2.50;;;17.40;99.90;;;;;;4202224;28;20055;-91
2023/07/11 05:21:54;;;;;;;5.63;2.40;;;17.80;99.90;;;;;;4219160;28;20040;-90
2023/07/11 05:23:55;;;;;;;9.93;3.10;;;17.80;99.90;;;;;;4215129;28;20076;-90
2023/07/11 05:25:56;;;;;;;8.30;2.10;;;17.90;99.90;;;;;;4216772;28;20412;-88
2023/07/11 05:27:57;;;;;;;6.90;2.60;;;18.00;99.90;;;;;;4215833;28;20434;-90
2023/07/11 05:29:57;;;;;;;8.63;3.28;;;18.20;99.90;;;;;;4216716;28;20040;-89
2023/07/11 05:31:58;;;;;;;6.43;2.83;;;18.30;99.90;;;;;;4212715;28;20040;-89
2023/07/11 05:33:59;;;;;;;5.25;2.47;;;18.50;99.90;;;;;;4214492;28;20048;-90
2023/07/11 05:38:37;;;;;;;7.55;3.15;;;18.70;99.90;;;;;;4196424;28;20052;-90
2023/07/11 05:40:41;;;;;;;9.50;3.05;;;18.70;99.90;;;;;;4219033;28;20072;-92
2023/07/11 05:42:42;;;;;;;11.15;2.90;;;18.70;99.90;;;;;;4200049;28;20169;-89
2023/07/11 05:44:44;;;;;;;6.55;2.67;;;18.70;99.90;;;;;;4218352;28;20036;-89
2023/07/11 05:46:48;;;;;;;7.63;2.45;;;18.80;99.90;;;;;;4202370;28;20040;-93
2023/07/11 05:48:56;;;;;;;7.63;2.75;;;18.90;99.90;;;;;;4201567;28;20497;-92
2023/07/11 05:51:04;;;;;;;7.90;2.53;;;19.00;99.90;;;;;;4203309;28;20123;-92
2023/07/11 05:53:06;;;;;;;6.53;2.95;;;19.20;99.90;;;;;;4218873;28;20105;-91
2023/07/11 05:55:07;;;;;;;7.18;2.63;;;19.30;99.90;;;;;;4201077;28;20072;-92
2023/07/11 05:57:08;;;;;;;5.00;2.80;;;19.40;99.90;;;;;;4217802;28;20097;-92
2023/07/11 05:59:09;;;;;;;8.77;2.53;;;19.50;99.90;;;;;;4218539;28;20115;-92
2023/07/11 06:01:19;;;;;;;7.15;2.83;;;19.50;99.90;;;;;;4221675;28;20050;-92
2023/07/11 06:03:23;;;;;;;6.97;2.70;;;19.50;99.90;;;;;;4203139;28;20032;-91
2023/07/11 06:05:25;;;;;;;8.43;2.50;;;19.50;99.90;;;;;;4218852;28;20052;-92
2023/07/11 06:07:28;;;;;;;4.03;2.20;;;19.60;99.90;;;;;;4217499;28;20082;-91
2023/07/11 06:09:29;;;;;;;7.70;2.88;;;19.50;99.90;;;;;;4201234;28;20051;-90
2023/07/11 06:11:29;;;;;;;11.77;3.13;;;19.60;99.90;;;;;;4219316;28;20071;-91
2023/07/11 06:13:39;;;;;;;5.78;2.85;;;19.70;99.90;;;;;;4218074;28;20101;-91
2023/07/11 06:15:41;;;;;;;8.45;2.88;;;19.70;99.90;;;;;;4221161;28;20040;-91
2023/07/11 06:17:43;;;;;;;7.10;2.63;;;19.70;99.90;;;;;;4220632;28;20067;-91
2023/07/11 06:19:50;;;;;;;5.88;2.85;;;19.70;99.90;;;;;;4213162;28;20047;-91
2023/07/11 06:21:51;;;;;;;10.93;2.85;;;19.70;99.90;;;;;;4235820;28;20059;-87
2023/07/11 06:23:53;;;;;;;7.63;3.13;;;19.30;99.90;;;;;;4232243;28;20489;-87
2023/07/11 06:25:53;;;;;;;8.38;3.45;;;19.70;99.90;;;;;;4216604;28;20044;-87
2023/07/11 06:27:54;;;;;;;7.93;3.30;;;19.70;99.90;;;;;;4216666;28;20127;-89
2023/07/11 06:29:56;;;;;;;9.80;3.55;;;19.80;99.90;;;;;;4217070;28;20040;-87
2023/07/11 06:31:58;;;;;;;7.40;3.35;;;19.90;99.90;;;;;;4232429;28;20042;-87
2023/07/11 06:34:00;;;;;;;5.22;2.67;;;20.00;99.90;;;;;;4216022;28;20071;-88
2023/07/11 06:36:04;;;;;;;12.13;2.92;;;20.20;99.90;;;;;;4208612;28;20063;-88
2023/07/11 06:38:05;;;;;;;5.32;2.97;;;20.40;99.90;;;;;;4215460;28;20044;-88
2023/07/11 06:40:08;;;;;;;8.80;2.95;;;20.50;99.90;;;;;;4199701;28;20070;-87
2023/07/11 06:42:09;;;;;;;6.43;3.08;;;20.50;99.90;;;;;;4198567;28;20135;-88
2023/07/11 06:44:11;;;;;;;6.95;2.55;;;20.60;99.90;;;;;;4199475;28;20059;-87
2023/07/11 06:46:13;;;;;;;9.32;3.13;;;20.70;99.90;;;;;;4199497;28;20052;-88
2023/07/11 06:48:15;;;;;;;11.30;4.07;;;20.80;99.90;;;;;;4215990;28;20044;-88
2023/07/11 06:50:16;;;;;;;8.13;2.60;;;20.80;99.90;;;;;;4199722;28;20056;-88
2023/07/11 06:52:16;;;;;;;9.93;2.67;;;21.00;99.90;;;;;;4200609;28;20062;-88
2023/07/11 06:54:17;;;;;;;9.30;3.53;;;21.00;99.90;;;;;;4200316;28;20046;-88
2023/07/11 06:56:22;;;;;;;8.23;2.72;;;21.20;99.90;;;;;;4207270;28;20515;-88
2023/07/11 06:58:25;;;;;;;14.77;3.75;;;21.30;99.90;;;;;;4217215;28;20119;-88
2023/07/11 07:00:26;;;;;;;7.68;2.90;;;21.40;99.90;;;;;;4216702;28;20098;-88
2023/07/11 07:02:28;;;;;;;8.00;3.08;;;21.60;99.90;;;;;;4233129;28;20111;-87
2023/07/11 07:04:29;;;;;;;7.10;3.03;;;21.60;99.90;;;;;;4232793;28;20043;-88
2023/07/11 07:06:30;;;;;;;10.73;2.60;;;21.70;99.90;;;;;;4216055;28;20539;-88
2023/07/11 07:08:31;;;;;;;5.28;2.22;;;21.70;99.90;;;;;;4216093;28;20048;-89
2023/07/11 07:10:32;;;;;;;6.63;2.50;;;21.80;99.90;;;;;;4218195;28;20484;-88
2023/07/11 07:12:32;;;;;;;4.93;2.10;;;21.90;99.90;;;;;;4215703;28;20089;-88
2023/07/11 07:14:34;;;;;;;6.40;2.60;;;21.90;99.90;;;;;;4208978;28;20425;-88
2023/07/11 07:16:36;;;;;;;5.57;2.33;;;22.00;99.90;;;;;;4216246;28;20047;-88
2023/07/11 07:18:40;;;;;;;5.18;2.55;;;22.10;99.90;;;;;;4198527;28;20489;-88
2023/07/11 07:20:43;;;;;;;7.00;2.33;;;22.20;99.90;;;;;;4215329;28;20478;-88
2023/07/11 07:22:44;;;;;;;8.23;2.72;;;22.30;99.90;;;;;;4198923;28;20056;-88
2023/07/11 07:24:45;;;;;;;6.65;2.42;;;22.40;99.90;;;;;;4198156;28;20044;-88
2023/07/11 07:26:46;;;;;;;8.63;2.05;;;22.50;99.90;;;;;;4198845;28;20056;-88
2023/07/11 07:28:46;;;;;;;8.20;2.70;;;22.50;99.90;;;;;;4215549;28;20043;-87
2023/07/11 07:30:48;;;;;;;7.53;1.88;;;22.60;99.90;;;;;;4198808;28;20048;-88
2023/07/11 07:32:49;;;;;;;8.40;2.42;;;22.70;99.90;;;;;;4209787;28;20535;-87
2023/07/11 07:34:50;;;;;;;6.18;2.75;;;22.90;99.90;;;;;;4206453;28;20048;-88
2023/07/11 07:36:51;;;;;;;6.47;2.13;;;22.90;99.90;;;;;;4181501;28;20148;-88
2023/07/11 07:38:53;;;;;;;5.18;1.80;;;23.00;99.90;;;;;;4180407;28;20045;-88
2023/07/11 07:40:55;;;;;;;6.05;2.60;;;23.10;99.90;;;;;;4200078;28;20044;-87
2023/07/11 07:42:55;;;;;;;7.97;2.00;;;23.10;99.90;;;;;;4181659;28;20500;-88
2023/07/11 07:44:56;;;;;;;6.55;2.10;;;23.20;99.90;;;;;;4199784;28;20044;-88
2023/07/11 07:46:57;;;;;;;10.10;2.53;;;23.20;99.90;;;;;;4199307;28;20096;-88
2023/07/11 07:48:58;;;;;;;7.50;2.10;;;23.20;99.90;;;;;;4198081;28;20052;-87
2023/07/11 07:51:11;;;;;;;4.05;1.70;;;23.30;99.90;;;;;;4181438;28;20053;-88
2023/07/11 07:53:13;;;;;;;9.23;2.20;;;23.30;99.90;;;;;;4198053;28;20067;-88
2023/07/11 07:55:14;;;;;;;8.43;2.65;;;23.30;99.90;;;;;;4214452;28;20047;-87
2023/07/11 07:57:15;;;;;;;7.80;1.80;;;23.40;99.90;;;;;;4197176;28;20514;-88
2023/07/11 07:59:16;;;;;;;5.00;2.45;;;23.40;99.90;;;;;;4214326;28;20044;-88
2023/07/11 08:01:18;;;;;;;4.50;1.77;;;23.40;99.90;;;;;;4181928;28;20061;-88
2023/07/11 08:03:19;;;;;;;3.95;1.67;;;23.50;99.90;;;;;;4199575;28;20076;-88
2023/07/11 08:05:20;;;;;;;4.97;1.83;;;23.50;99.90;;;;;;4215490;28;20530;-88
2023/07/11 08:07:21;;;;;;;4.47;1.88;;;23.50;99.90;;;;;;4197363;28;20048;-88
2023/07/11 08:09:22;;;;;;;7.28;2.40;;;23.50;99.90;;;;;;4210561;28;20511;-88
2023/07/11 08:11:23;;;;;;;7.22;2.45;;;23.60;99.90;;;;;;4214646;28;20482;-88
2023/07/11 08:13:26;;;;;;;6.13;2.33;;;23.60;99.90;;;;;;4231724;28;20051;-88
2023/07/11 08:15:28;;;;;;;5.55;2.15;;;23.80;99.90;;;;;;4210604;28;20476;-88
2023/07/11 08:17:29;;;;;;;3.90;1.70;;;23.90;99.90;;;;;;4214558;28;20134;-88
2023/07/11 08:19:31;;;;;;;5.97;2.17;;;24.00;99.90;;;;;;4218207;28;20433;-88
2023/07/11 08:21:32;;;;;;;4.55;1.92;;;24.10;99.90;;;;;;4213070;28;20051;-86
2023/07/11 08:23:33;;;;;;;5.47;2.13;;;24.10;99.90;;;;;;4214586;28;20093;-89
2023/07/11 08:25:34;;;;;;;12.10;2.33;;;24.10;99.90;;;;;;4213354;28;20044;-89
2023/07/11 08:27:36;;;;;;;5.97;1.80;;;24.10;99.90;;;;;;4224245;28;20120;-88
2023/07/11 08:29:37;;;;;;;7.45;2.13;;;24.20;99.90;;;;;;4227417;28;20054;-89
2023/07/11 08:31:39;;;;;;;5.80;2.00;;;24.20;99.90;;;;;;4213281;28;20202;-88
2023/07/11 08:33:41;;;;;;;7.00;2.03;;;24.20;99.90;;;;;;4196672;28;20052;-88
2023/07/11 08:35:42;;;;;;;8.38;1.88;;;24.20;99.90;;;;;;4217028;28;20128;-89
2023/07/11 08:37:43;;;;;;;5.30;2.17;;;24.20;99.90;;;;;;4197919;28;20463;-89
2023/07/11 08:39:44;;;;;;;8.45;2.20;;;24.10;99.90;;;;;;4214731;28;20466;-89
2023/07/11 08:41:51;;;;;;;7.38;1.95;;;24.10;99.90;;;;;;4214816;28;20081;-88
2023/07/11 08:43:57;;;;;;;5.22;2.15;;;24.20;99.90;;;;;;4215883;28;20070;-88
2023/07/11 08:46:14;;;;;;;3.85;2.00;;;24.20;99.90;;;;;;4218867;28;20036;-89
2023/07/11 08:48:31;;;;;;;5.28;2.13;;;24.20;99.90;;;;;;4218090;28;20048;-88
2023/07/11 08:50:39;;;;;;;8.80;2.45;;;24.40;99.90;;;;;;4218723;28;20048;-88
2023/07/11 08:52:44;;;;;;;5.75;2.30;;;24.50;99.90;;;;;;4215981;28;20052;-89
2023/07/11 08:55:09;;;;;;;6.68;2.17;;;24.80;99.90;;;;;;4228732;28;20093;-88
2023/07/11 08:57:12;;;;;;;6.38;2.45;;;25.10;99.90;;;;;;4203565;28;20052;-89
2023/07/11 08:59:43;;;;;;;7.55;2.63;;;25.30;99.90;;;;;;4215333;28;20428;-87
2023/07/11 09:02:28;;;;;;;5.65;2.42;;;25.50;99.30;;;;;;4202373;28;20087;-89
2023/07/11 09:04:30;;;;;;;7.82;2.15;;;25.80;98.90;;;;;;4201020;28;20052;-88
2023/07/11 09:06:40;;;;;;;4.93;2.10;;;26.00;99.60;;;;;;4203245;28;20037;-88
2023/07/11 09:08:47;;;;;;;8.38;2.00;;;26.10;99.10;;;;;;4217739;28;20083;-89
2023/07/11 09:11:16;;;;;;;7.72;1.65;;;26.10;98.90;;;;;;4218111;28;20060;-88
2023/07/11 09:13:43;;;;;;;8.70;1.98;;;26.20;98.80;;;;;;4218499;28;20480;-88
2023/07/11 09:15:49;;;;;;;6.80;2.22;;;26.40;98.80;;;;;;4218013;28;20569;-88
2023/07/11 09:17:56;;;;;;;12.35;2.00;;;26.60;98.30;;;;;;4215646;28;20044;-89
2023/07/11 09:20:07;;;;;;;7.28;2.22;;;26.90;98.30;;;;;;4216469;28;20072;-88
2023/07/11 09:22:21;;;;;;;8.35;2.15;;;27.00;96.50;;;;;;4234727;28;20100;-89
2023/07/11 09:24:34;;;;;;;6.90;1.70;;;27.20;97.10;;;;;;4192210;28;20053;-89
2023/07/11 09:26:47;;;;;;;4.28;1.60;;;27.30;95.60;;;;;;4216235;28;20555;-89
2023/07/11 09:28:48;;;;;;;4.20;1.70;;;27.20;96.40;;;;;;4217723;28;20048;-88
2023/07/11 09:31:02;;;;;;;4.50;1.83;;;27.00;96.40;;;;;;4201723;28;20040;-89
2023/07/11 09:33:28;;;;;;;4.45;1.70;;;27.10;94.50;;;;;;4216914;28;20179;-90
2023/07/11 09:35:32;;;;;;;11.57;2.58;;;27.20;95.30;;;;;;4216804;28;20052;-89
2023/07/11 09:37:41;;;;;;;7.93;1.52;;;27.40;96.00;;;;;;4212901;28;20463;-88
2023/07/11 09:39:58;;;;;;;8.18;1.80;;;27.60;95.20;;;;;;4200132;28;20119;-88
2023/07/11 09:42:43;;;;;;;7.28;1.70;;;27.90;94.90;;;;;;4215611;28;20177;-89
2023/07/11 09:45:10;;;;;;;5.32;1.60;;;27.80;93.10;;;;;;4210774;28;20040;-87
2023/07/11 09:47:17;;;;;;;6.90;2.17;;;27.80;93.60;;;;;;4203104;28;20093;-89
2023/07/11 09:49:29;;;;;;;3.40;1.60;;;27.90;93.90;;;;;;4221778;28;20056;-87
2023/07/11 09:52:00;;;;;;;7.43;1.40;;;27.80;92.90;;;;;;4229148;28;20146;-87
2023/07/11 09:54:15;;;;;;;6.32;1.92;;;27.90;93.50;;;;;;4210854;28;20049;-87
2023/07/11 09:56:17;;;;;;;6.03;1.65;;;28.10;93.50;;;;;;4201013;28;20087;-87
2023/07/11 09:58:18;;;;;;;5.90;1.30;;;28.10;92.50;;;;;;4223923;28;20044;-88
2023/07/11 10:00:19;;;;;;;6.45;1.58;;;28.30;92.90;;;;;;4208394;28;20047;-89
2023/07/11 10:02:22;;;;;;;4.07;1.42;;;28.30;92.20;;;;;;4200820;28;20136;-88
2023/07/11 10:04:27;;;;;;;7.38;2.05;;;28.40;91.30;;;;;;4204963;28;20079;-88
2023/07/11 10:06:28;;;;;;;6.35;1.23;;;28.50;91.70;;;;;;4208545;28;20044;-89
2023/07/11 10:08:34;;;;;;;4.00;1.13;;;28.60;91.70;;;;;;4199473;28;20091;-89
2023/07/11 10:10:46;;;;;;;7.43;1.40;;;28.90;91.80;;;;;;4208263;28;20040;-88
2023/07/11 10:12:47;;;;;;;6.25;1.67;;;29.20;90.90;;;;;;4199453;28;20055;-88
2023/07/11 10:14:55;;;;;;;3.35;1.20;;;29.40;90.90;;;;;;4208916;28;20151;-86
2023/07/11 10:17:13;;;;;;;5.72;1.63;;;29.60;90.40;;;;;;4207927;28;20044;-85
2023/07/11 10:19:18;;;;;;;4.75;1.27;;;29.70;90.10;;;;;;4199229;28;20041;-87
2023/07/11 10:21:24;;;;;;;4.93;1.48;;;29.50;88.50;;;;;;4198930;28;20048;-85
2023/07/11 10:23:26;;;;;;;9.00;1.45;;;29.40;89.20;;;;;;4209376;28;20037;-85
2023/07/11 10:25:28;;;;;;;4.40;1.30;;;29.10;89.60;;;;;;4190141;28;20055;-85
2023/07/11 10:27:36;;;;;;;5.07;1.63;;;28.80;88.80;;;;;;4215953;28;20039;-85
2023/07/11 10:29:44;;;;;;;6.80;1.13;;;28.70;89.30;;;;;;4204676;28;20036;-85
2023/07/11 10:31:51;;;;;;;2.03;1.17;;;28.70;89.90;;;;;;4210502;28;20048;-85
2023/07/11 10:33:59;;;;;;;6.78;1.38;;;28.80;89.90;;;;;;4207995;28;20040;-86
2023/07/11 10:36:07;;;;;;;2.90;1.15;;;28.70;88.90;;;;;;4199751;28;20094;-86
2023/07/11 10:38:22;;;;;;;3.42;1.20;;;28.90;90.00;;;;;;4192133;28;20045;-87
2023/07/11 10:40:30;;;;;;;2.67;1.00;;;28.70;88.70;;;;;;4209229;28;20654;-85
2023/07/11 10:42:38;;;;;;;5.97;1.17;;;28.70;89.20;;;;;;4203051;28;20441;-85
2023/07/11 10:44:46;;;;;;;6.00;1.38;;;28.70;88.30;;;;;;4204557;28;20051;-87